KFLD

Fond Du Lac County Airport

Fond Du Lac, Wisconsin, USA
METAR KFLD 280053Z AUTO 00000KT 10SM CLR 28/18 A2984 RMK AO2 SLP099 T02830178
Observed Flight Rules
May-28 @ 00:53 UTC (21 minutes ago) Visual Flight Rules
Visibility Clouds
10 miles
  • Clear skies
Temperatures Readings
Current 28°C / 82°F
Dewpoint 18°C / 64°F
Humidity 55%
Altimeter 29.84" Hg
Pressure 1009.9 hPa
Elevation 240
METAR KFLD 280053Z AUTO 00000KT 10SM CLR 28/18 A2984 RMK AO2 SLP099 T02830178
Observed Flight Rules
May-28 @ 00:53 UTC
(21 minutes ago)
VFR
Clouds
  • Clear skies
Temperature Dewpoint
28°C / 82°F 18°C / 64°F
Humidity Altimeter Pressure
55% 29.84" Hg 1009.9 hPa